createdAt,value
2019-03-17T00:01:57.607Z,10.30
2019-03-17T00:04:31.396Z,10.30
2019-03-17T00:06:57.263Z,10.30
2019-03-17T00:09:26.581Z,10.30
2019-03-17T00:11:55.914Z,10.30
2019-03-17T00:14:25.343Z,10.30
2019-03-17T00:16:54.641Z,10.30
2019-03-17T00:19:23.811Z,10.30
2019-03-17T00:21:53.063Z,10.30
2019-03-17T00:24:22.453Z,10.30
2019-03-17T00:26:51.739Z,10.30
2019-03-17T00:29:20.910Z,10.30
2019-03-17T00:31:50.145Z,10.30
2019-03-17T00:34:19.384Z,10.40
2019-03-17T00:36:48.643Z,10.40
2019-03-17T00:39:17.927Z,10.40
2019-03-17T00:41:47.279Z,10.40
2019-03-17T00:44:16.549Z,10.50
2019-03-17T00:46:48.227Z,10.50
2019-03-17T00:49:25.307Z,10.50
2019-03-17T00:51:57.656Z,10.50
2019-03-17T00:54:27.242Z,10.50
2019-03-17T00:57:01.487Z,10.50
2019-03-17T00:59:31.959Z,10.50
2019-03-17T01:02:01.184Z,10.50
2019-03-17T01:04:30.371Z,10.50
2019-03-17T01:07:01.177Z,10.50
2019-03-17T01:09:30.347Z,10.50
2019-03-17T01:11:59.633Z,10.50
2019-03-17T01:14:28.773Z,10.50
2019-03-17T01:16:58.103Z,10.50
2019-03-17T01:19:27.250Z,10.50
2019-03-17T01:21:56.476Z,10.50
2019-03-17T01:24:25.677Z,10.50
2019-03-17T01:26:54.876Z,10.50
2019-03-17T01:29:24.173Z,10.50
2019-03-17T01:31:53.418Z,10.60
2019-03-17T01:34:22.701Z,10.60
2019-03-17T01:36:51.865Z,10.60
2019-03-17T01:39:21.041Z,10.60
2019-03-17T01:41:50.195Z,10.60
2019-03-17T01:44:19.617Z,10.60
2019-03-17T01:46:49.268Z,10.60
2019-03-17T01:49:18.618Z,10.50
2019-03-17T01:51:47.998Z,10.60
2019-03-17T01:54:17.127Z,10.60
2019-03-17T01:56:46.351Z,10.60
2019-03-17T01:59:15.669Z,10.60
2019-03-17T02:01:45.134Z,10.60
2019-03-17T02:04:14.288Z,10.60
2019-03-17T02:06:43.495Z,10.60
2019-03-17T02:09:13.259Z,10.60
2019-03-17T02:11:42.506Z,10.50
2019-03-17T02:14:13.917Z,10.50
2019-03-17T02:16:43.281Z,10.50
2019-03-17T02:19:12.535Z,10.50
2019-03-17T02:21:43.002Z,10.50
2019-03-17T02:24:12.109Z,10.50
2019-03-17T02:26:43.676Z,10.50
2019-03-17T02:29:12.947Z,10.50
2019-03-17T02:31:44.505Z,10.50
2019-03-17T02:34:13.932Z,10.50
2019-03-17T02:36:43.081Z,10.50
2019-03-17T02:39:12.681Z,10.50
2019-03-17T02:41:41.819Z,10.50
2019-03-17T02:44:11.073Z,10.40
2019-03-17T02:46:40.212Z,10.40
2019-03-17T02:49:09.732Z,10.40
2019-03-17T02:51:38.935Z,10.40
2019-03-17T02:54:08.442Z,10.40
2019-03-17T02:56:37.609Z,10.40
2019-03-17T02:59:06.754Z,10.40
2019-03-17T03:01:36.078Z,10.40
2019-03-17T03:04:05.282Z,10.40
2019-03-17T03:06:34.634Z,10.40
2019-03-17T03:09:05.222Z,10.30
2019-03-17T03:11:34.561Z,10.40
2019-03-17T03:14:03.791Z,10.40
2019-03-17T03:16:32.947Z,10.30
2019-03-17T03:19:02.174Z,10.30
2019-03-17T03:21:31.372Z,10.30
2019-03-17T03:24:00.649Z,10.30
2019-03-17T03:26:30.468Z,10.30
2019-03-17T03:28:59.767Z,10.30
2019-03-17T03:31:28.941Z,10.40
2019-03-17T03:33:58.149Z,10.30
2019-03-17T03:36:27.449Z,10.30
2019-03-17T03:38:56.592Z,10.30
2019-03-17T03:41:25.702Z,10.20
2019-03-17T03:43:54.877Z,10.20
2019-03-17T03:46:24.074Z,10.20
2019-03-17T03:48:53.349Z,10.20
2019-03-17T03:51:22.471Z,10.20
2019-03-17T03:53:51.593Z,10.20
2019-03-17T03:56:20.725Z,10.10
2019-03-17T03:58:54.444Z,10.10
2019-03-17T04:01:23.598Z,10.10
2019-03-17T04:03:52.714Z,10.10
2019-03-17T04:06:26.901Z,10.10
2019-03-17T04:08:52.800Z,10.10
2019-03-17T04:11:21.955Z,10.10
2019-03-17T04:13:51.113Z,10.10
2019-03-17T04:16:20.302Z,10.10
2019-03-17T04:18:49.557Z,10.10
2019-03-17T04:21:18.731Z,10.10
2019-03-17T04:23:47.881Z,10.10
2019-03-17T04:26:17.043Z,10.10
2019-03-17T04:28:46.237Z,10.10
2019-03-17T04:31:15.432Z,10.10
2019-03-17T04:33:44.592Z,10.10
2019-03-17T04:36:13.718Z,10.20
2019-03-17T04:38:44.096Z,10.10
2019-03-17T04:41:13.382Z,10.20
2019-03-17T04:43:42.567Z,10.20
2019-03-17T04:46:11.729Z,10.20
2019-03-17T04:48:40.880Z,10.20
2019-03-17T04:51:10.191Z,10.20
2019-03-17T04:53:39.402Z,10.20
2019-03-17T04:56:08.664Z,10.20
2019-03-17T04:58:37.818Z,10.20
2019-03-17T05:01:06.967Z,10.20
2019-03-17T05:03:36.219Z,10.20
2019-03-17T05:06:05.489Z,10.20
2019-03-17T05:08:34.687Z,10.20
2019-03-17T05:11:03.818Z,10.20
2019-03-17T05:13:33.021Z,10.20
2019-03-17T05:16:05.838Z,10.20
2019-03-17T05:18:35.021Z,10.20
2019-03-17T05:21:04.183Z,10.20
2019-03-17T05:23:33.347Z,10.20
2019-03-17T05:26:02.581Z,10.20
2019-03-17T05:28:31.707Z,10.20
2019-03-17T05:31:01.185Z,10.30
2019-03-17T05:33:30.581Z,10.30
2019-03-17T05:36:00.853Z,10.20
2019-03-17T05:38:30.074Z,10.20
2019-03-17T05:40:59.326Z,10.20
2019-03-17T05:43:28.493Z,10.10
2019-03-17T05:45:57.677Z,10.10
2019-03-17T05:48:26.835Z,10.00
2019-03-17T05:50:55.975Z,10.00
2019-03-17T05:53:25.127Z,10.00
2019-03-17T05:55:54.259Z,10.00
2019-03-17T05:58:23.493Z,10.00
2019-03-17T06:00:52.689Z,9.90
2019-03-17T06:03:21.967Z,9.90
2019-03-17T06:05:51.118Z,9.80
2019-03-17T06:08:20.253Z,9.80
2019-03-17T06:10:49.423Z,9.80
2019-03-17T06:13:18.562Z,9.80
2019-03-17T06:15:47.676Z,9.80
2019-03-17T06:18:16.866Z,9.80
2019-03-17T06:20:45.978Z,9.70
2019-03-17T06:23:15.122Z,9.70
2019-03-17T06:25:44.278Z,9.70
2019-03-17T06:28:13.378Z,9.60
2019-03-17T06:30:42.478Z,9.60
2019-03-17T06:33:11.786Z,9.60
2019-03-17T06:35:40.922Z,9.60
2019-03-17T06:38:10.154Z,9.50
2019-03-17T06:40:39.418Z,9.50
2019-03-17T06:43:08.613Z,9.50
2019-03-17T06:45:37.767Z,9.40
2019-03-17T06:48:06.889Z,9.40
2019-03-17T06:50:36.177Z,9.50
2019-03-17T06:53:05.298Z,9.40
2019-03-17T06:55:35.807Z,9.40
2019-03-17T06:58:04.945Z,9.40
2019-03-17T07:00:34.122Z,9.40
2019-03-17T07:03:03.268Z,9.40
2019-03-17T07:05:32.407Z,9.40
2019-03-17T07:08:01.618Z,9.40
2019-03-17T07:10:49.845Z,9.40
2019-03-17T07:13:19.075Z,9.40
2019-03-17T07:15:48.223Z,9.40
2019-03-17T07:18:17.426Z,9.40
2019-03-17T07:20:46.577Z,9.40
2019-03-17T07:23:15.677Z,9.40
2019-03-17T07:25:44.882Z,9.40
2019-03-17T07:28:14.097Z,9.40
2019-03-17T07:30:43.319Z,9.40
2019-03-17T07:33:12.523Z,9.40
2019-03-17T07:35:41.821Z,9.40
2019-03-17T07:38:10.974Z,9.40
2019-03-17T07:40:40.193Z,9.40
2019-03-17T07:43:09.345Z,9.30
2019-03-17T07:45:38.471Z,9.40
2019-03-17T07:48:07.619Z,9.40
2019-03-17T07:50:36.865Z,9.40
2019-03-17T07:53:08.397Z,9.40
2019-03-17T07:55:37.613Z,9.40
2019-03-17T07:58:06.757Z,9.40
2019-03-17T08:00:36.013Z,9.30
2019-03-17T08:03:05.186Z,9.30
2019-03-17T08:05:34.453Z,9.20
2019-03-17T08:08:09.323Z,9.10
2019-03-17T08:10:34.564Z,9.00
2019-03-17T08:13:03.762Z,8.90
2019-03-17T08:15:32.925Z,8.90
2019-03-17T08:18:02.084Z,8.90
2019-03-17T08:20:31.422Z,8.90
2019-03-17T08:23:00.679Z,8.90
2019-03-17T08:25:29.855Z,8.90
2019-03-17T08:27:59.003Z,8.90
2019-03-17T08:30:28.168Z,8.90
2019-03-17T08:32:59.362Z,8.90
2019-03-17T08:35:29.810Z,8.90
2019-03-17T08:37:59.062Z,9.00
2019-03-17T08:40:28.284Z,9.00
2019-03-17T08:42:57.525Z,9.00
2019-03-17T08:45:26.820Z,9.00
2019-03-17T08:47:58.336Z,9.00
2019-03-17T08:50:28.365Z,9.00
2019-03-17T08:52:57.538Z,9.00
2019-03-17T08:55:26.928Z,9.00
2019-03-17T08:57:56.239Z,9.10
2019-03-17T09:00:25.421Z,9.10
2019-03-17T09:02:54.637Z,9.00
2019-03-17T09:05:23.901Z,9.10
2019-03-17T09:07:53.171Z,9.10
2019-03-17T09:10:25.421Z,9.10
2019-03-17T09:12:54.726Z,9.20
2019-03-17T09:15:23.929Z,9.20
2019-03-17T09:17:53.223Z,9.20
2019-03-17T09:20:22.725Z,9.20
2019-03-17T09:22:52.646Z,9.30
2019-03-17T09:25:21.795Z,9.30
2019-03-17T09:27:51.147Z,9.40
2019-03-17T09:30:20.399Z,9.40
2019-03-17T09:32:49.609Z,9.40
2019-03-17T09:35:18.816Z,9.40
2019-03-17T09:37:48.096Z,9.40
2019-03-17T09:40:17.270Z,9.50
2019-03-17T09:42:46.474Z,9.50
2019-03-17T09:45:15.697Z,9.50
2019-03-17T09:47:45.052Z,9.50
2019-03-17T09:50:14.211Z,9.50
2019-03-17T09:52:43.593Z,9.60
2019-03-17T09:55:12.745Z,9.60
2019-03-17T09:57:41.954Z,9.70
2019-03-17T10:00:12.553Z,9.80
2019-03-17T10:02:41.831Z,9.80
2019-03-17T10:05:12.686Z,9.90
2019-03-17T10:07:43.368Z,9.90
2019-03-17T10:10:13.169Z,9.80
2019-03-17T10:12:51.027Z,9.80
2019-03-17T10:15:20.208Z,9.80
2019-03-17T10:17:49.422Z,9.90
2019-03-17T10:20:18.664Z,10.00
2019-03-17T10:22:47.945Z,10.00
2019-03-17T10:25:17.199Z,10.00
2019-03-17T10:27:46.521Z,10.00
2019-03-17T10:30:15.838Z,10.00
2019-03-17T10:32:44.967Z,10.10
2019-03-17T10:35:14.127Z,10.10
2019-03-17T10:37:43.701Z,10.10
2019-03-17T10:40:14.101Z,10.00
2019-03-17T10:42:43.309Z,10.00
2019-03-17T10:45:12.698Z,10.00
2019-03-17T10:47:43.678Z,10.10
2019-03-17T10:50:14.271Z,10.10
2019-03-17T10:52:44.647Z,10.10
2019-03-17T10:55:14.210Z,10.10
2019-03-17T10:57:45.304Z,10.10
2019-03-17T11:00:16.845Z,10.20
2019-03-17T11:02:46.114Z,10.20
2019-03-17T11:05:15.570Z,10.30
2019-03-17T11:07:44.728Z,10.30
2019-03-17T11:10:14.124Z,10.20
2019-03-17T11:12:43.369Z,10.30
2019-03-17T11:15:13.626Z,10.20
2019-03-17T11:17:42.937Z,10.30
2019-03-17T11:20:13.039Z,10.60
2019-03-17T11:22:42.371Z,10.80
2019-03-17T11:25:11.765Z,11.10
2019-03-17T11:27:43.785Z,11.20
2019-03-17T11:30:13.195Z,11.10
2019-03-17T11:32:42.402Z,11.10
2019-03-17T11:35:13.715Z,11.60
2019-03-17T11:37:43.057Z,12.20
2019-03-17T11:40:13.711Z,12.80
2019-03-17T11:42:43.000Z,13.00
2019-03-17T11:45:13.388Z,13.20
2019-03-17T11:47:42.764Z,13.40
2019-03-17T11:50:13.860Z,13.40
2019-03-17T11:52:43.991Z,13.50
2019-03-17T11:55:14.450Z,13.60
2019-03-17T11:57:43.626Z,13.80
2019-03-17T12:00:13.902Z,13.80
2019-03-17T12:02:43.134Z,13.50
2019-03-17T12:05:12.402Z,13.60
2019-03-17T12:07:41.673Z,13.30
2019-03-17T12:10:12.380Z,12.80
2019-03-17T12:12:41.902Z,12.30
2019-03-17T12:15:13.116Z,12.00
2019-03-17T12:17:42.323Z,11.60
2019-03-17T12:20:12.789Z,11.60
2019-03-17T12:22:42.410Z,11.70
2019-03-17T12:25:12.397Z,11.50
2019-03-17T12:27:43.885Z,11.30
2019-03-17T12:30:18.650Z,11.30
2019-03-17T12:32:48.019Z,11.20
2019-03-17T12:35:17.557Z,11.40
2019-03-17T12:37:46.850Z,11.30
2019-03-17T12:40:16.042Z,11.40
2019-03-17T12:42:45.490Z,11.50
2019-03-17T12:45:14.915Z,11.40
2019-03-17T12:47:44.057Z,11.40
2019-03-17T12:50:17.181Z,11.50
2019-03-17T12:52:46.366Z,11.40
2019-03-17T12:55:15.549Z,11.30
2019-03-17T12:57:44.809Z,11.10
2019-03-17T13:00:15.087Z,10.90
2019-03-17T13:02:44.252Z,10.80
2019-03-17T13:05:13.358Z,11.00
2019-03-17T13:07:42.487Z,11.20
2019-03-17T13:10:15.931Z,11.40
2019-03-17T13:12:44.262Z,11.70
2019-03-17T13:15:13.608Z,11.70
2019-03-17T13:17:42.747Z,11.70
2019-03-17T13:20:13.064Z,11.70
2019-03-17T13:22:42.337Z,11.50
2019-03-17T13:25:11.536Z,11.40
2019-03-17T13:27:40.877Z,11.20
2019-03-17T13:30:11.452Z,11.20
2019-03-17T13:32:40.682Z,11.20
2019-03-17T13:35:09.861Z,11.20
2019-03-17T13:37:39.148Z,11.00
2019-03-17T13:40:12.135Z,11.00
2019-03-17T13:42:41.410Z,11.10
2019-03-17T13:45:11.205Z,11.20
2019-03-17T13:47:40.360Z,11.30
2019-03-17T13:50:11.699Z,11.40
2019-03-17T13:52:40.900Z,11.30
2019-03-17T13:55:10.056Z,11.20
2019-03-17T13:57:39.221Z,11.00
2019-03-17T14:00:10.771Z,10.70
2019-03-17T14:02:39.952Z,10.60
2019-03-17T14:05:09.217Z,10.50
2019-03-17T14:07:38.496Z,10.30
2019-03-17T14:10:15.935Z,10.20
2019-03-17T14:12:45.298Z,10.10
2019-03-17T14:15:14.862Z,10.20
2019-03-17T14:17:44.061Z,10.50
2019-03-17T14:20:15.667Z,10.80
2019-03-17T14:22:44.883Z,11.40
2019-03-17T14:25:19.587Z,11.60
2019-03-17T14:27:48.762Z,11.50
2019-03-17T14:30:17.913Z,11.30
2019-03-17T14:32:47.491Z,11.30
2019-03-17T14:35:16.750Z,11.30
2019-03-17T14:37:45.954Z,11.30
2019-03-17T14:40:17.521Z,11.40
2019-03-17T14:42:46.717Z,11.70
2019-03-17T14:45:16.069Z,11.90
2019-03-17T14:47:45.333Z,12.00
2019-03-17T14:50:17.197Z,12.20
2019-03-17T14:52:46.535Z,12.20
2019-03-17T14:55:15.712Z,12.10
2019-03-17T14:58:09.320Z,12.00
2019-03-17T15:00:38.559Z,12.10
2019-03-17T15:03:07.765Z,11.80
2019-03-17T15:05:36.947Z,12.00
2019-03-17T15:08:06.121Z,12.10
2019-03-17T15:10:35.325Z,12.10
2019-03-17T15:13:05.463Z,12.40
2019-03-17T15:15:34.853Z,12.10
2019-03-17T15:18:05.079Z,11.60
2019-03-17T15:20:34.225Z,11.10
2019-03-17T15:23:03.615Z,10.60
2019-03-17T15:25:32.838Z,10.20
2019-03-17T15:28:02.002Z,9.90
2019-03-17T15:30:36.291Z,9.60
2019-03-17T15:33:06.651Z,9.30
2019-03-17T15:35:35.973Z,8.80
2019-03-17T15:38:05.276Z,8.50
2019-03-17T15:40:34.620Z,8.40
2019-03-17T15:43:08.958Z,8.40
2019-03-17T15:45:41.138Z,8.40
2019-03-17T15:48:12.695Z,8.40
2019-03-17T15:50:41.852Z,8.50
2019-03-17T15:53:11.128Z,8.50
2019-03-17T15:55:40.351Z,8.60
2019-03-17T15:58:09.661Z,8.80
2019-03-17T16:00:38.945Z,8.80
2019-03-17T16:03:08.240Z,9.00
2019-03-17T16:05:37.492Z,9.00
2019-03-17T16:08:06.726Z,9.00
2019-03-17T16:10:35.910Z,9.00
2019-03-17T16:13:05.083Z,9.10
2019-03-17T16:15:34.226Z,9.10
2019-03-17T16:18:03.454Z,8.90
2019-03-17T16:20:32.771Z,8.80
2019-03-17T16:23:01.924Z,8.80
2019-03-17T16:25:31.379Z,8.70
2019-03-17T16:28:00.537Z,8.70
2019-03-17T16:30:32.140Z,8.60
2019-03-17T16:33:01.672Z,8.50
2019-03-17T16:35:30.815Z,8.50
2019-03-17T16:38:00.110Z,8.40
2019-03-17T16:40:29.312Z,8.30
2019-03-17T16:42:58.755Z,8.30
2019-03-17T16:45:27.930Z,8.30
2019-03-17T16:48:02.443Z,8.30
2019-03-17T16:50:31.650Z,8.30
2019-03-17T16:53:03.940Z,8.40
2019-03-17T16:55:33.071Z,8.40
2019-03-17T16:58:02.365Z,8.50
2019-03-17T17:00:31.495Z,8.50
2019-03-17T17:03:00.647Z,8.50
2019-03-17T17:05:29.919Z,8.40
2019-03-17T17:07:59.044Z,8.40
2019-03-17T17:10:28.283Z,8.30
2019-03-17T17:12:57.528Z,8.30
2019-03-17T17:15:26.799Z,8.20
2019-03-17T17:17:56.046Z,8.20
2019-03-17T17:20:26.489Z,8.20
2019-03-17T17:22:55.682Z,8.10
2019-03-17T17:25:24.878Z,8.10
2019-03-17T17:27:54.028Z,8.10
2019-03-17T17:30:23.304Z,8.10
2019-03-17T17:32:54.077Z,8.10
2019-03-17T17:35:23.305Z,8.10
2019-03-17T17:37:52.771Z,8.10
2019-03-17T17:40:21.913Z,8.10
2019-03-17T17:42:54.528Z,8.10
2019-03-17T17:45:23.806Z,8.00
2019-03-17T17:47:53.720Z,8.00
2019-03-17T17:50:23.532Z,8.00
2019-03-17T17:52:52.780Z,8.00
2019-03-17T17:55:21.986Z,7.90
2019-03-17T17:57:52.833Z,7.80
2019-03-17T18:00:23.108Z,7.90
2019-03-17T18:02:52.344Z,7.90
2019-03-17T18:05:21.846Z,7.80
2019-03-17T18:07:51.376Z,7.80
2019-03-17T18:10:20.631Z,7.80
2019-03-17T18:12:49.871Z,7.60
2019-03-17T18:15:20.793Z,7.60
2019-03-17T18:17:49.970Z,7.50
2019-03-17T18:20:19.137Z,7.50
2019-03-17T18:22:48.304Z,7.50
2019-03-17T18:25:18.058Z,7.50
2019-03-17T18:27:47.518Z,7.40
2019-03-17T18:30:17.405Z,7.30
2019-03-17T18:32:47.018Z,7.10
2019-03-17T18:35:16.284Z,6.60
2019-03-17T18:37:45.576Z,6.30
2019-03-17T18:40:18.012Z,6.00
2019-03-17T18:42:47.365Z,5.90
2019-03-17T18:45:22.863Z,5.90
2019-03-17T18:47:52.189Z,5.90
2019-03-17T18:50:21.390Z,5.90
2019-03-17T18:52:51.120Z,5.90
2019-03-17T18:55:20.375Z,5.80
2019-03-17T18:57:49.755Z,5.80
2019-03-17T19:00:18.902Z,5.90
2019-03-17T19:02:48.233Z,5.90
2019-03-17T19:05:19.837Z,6.00
2019-03-17T19:07:48.471Z,6.10
2019-03-17T19:10:17.863Z,6.10
2019-03-17T19:12:47.066Z,6.10
2019-03-17T19:15:17.068Z,6.10
2019-03-17T19:17:46.190Z,6.10
2019-03-17T19:20:15.727Z,6.20
2019-03-17T19:22:44.856Z,6.20
2019-03-17T19:25:14.861Z,6.30
2019-03-17T19:27:43.994Z,6.30
2019-03-17T19:30:15.045Z,6.50
2019-03-17T19:32:44.277Z,6.40
2019-03-17T19:35:13.535Z,6.40
2019-03-17T19:37:42.856Z,6.30
2019-03-17T19:40:13.593Z,6.20
2019-03-17T19:42:42.752Z,6.10
2019-03-17T19:45:11.910Z,5.90
2019-03-17T19:47:41.284Z,6.00
2019-03-17T19:50:11.534Z,6.00
2019-03-17T19:52:40.756Z,6.00
2019-03-17T19:55:10.268Z,6.00
2019-03-17T19:57:39.442Z,5.90
2019-03-17T20:00:10.611Z,5.90
2019-03-17T20:02:39.758Z,5.80
2019-03-17T20:05:09.628Z,5.80
2019-03-17T20:07:39.154Z,5.90
2019-03-17T20:10:10.647Z,5.80
2019-03-17T20:12:39.813Z,5.90
2019-03-17T20:15:09.675Z,5.80
2019-03-17T20:17:38.983Z,5.80
2019-03-17T20:20:09.389Z,5.80
2019-03-17T20:22:38.562Z,5.90
2019-03-17T20:25:08.994Z,5.90
2019-03-17T20:27:38.309Z,5.70
2019-03-17T20:30:08.145Z,5.70
2019-03-17T20:32:37.398Z,5.70
2019-03-17T20:35:08.349Z,5.70
2019-03-17T20:37:37.576Z,5.70
2019-03-17T20:40:07.514Z,5.70
2019-03-17T20:42:36.706Z,5.60
2019-03-17T20:45:06.013Z,5.60
2019-03-17T20:47:35.169Z,5.60
2019-03-17T20:50:05.351Z,5.60
2019-03-17T20:52:34.551Z,5.60
2019-03-17T20:55:03.840Z,5.50
2019-03-17T20:57:33.156Z,5.60
2019-03-17T21:00:03.134Z,5.50
2019-03-17T21:02:32.390Z,5.60
2019-03-17T21:05:01.838Z,5.50
2019-03-17T21:07:31.220Z,5.50
2019-03-17T21:10:00.564Z,5.50
2019-03-17T21:12:29.915Z,5.40
2019-03-17T21:14:59.632Z,5.50
2019-03-17T21:17:28.864Z,5.50
2019-03-17T21:19:58.280Z,5.50
2019-03-17T21:22:27.675Z,5.50
2019-03-17T21:24:57.003Z,5.40
2019-03-17T21:27:26.178Z,5.50
2019-03-17T21:29:55.970Z,5.40
2019-03-17T21:32:27.892Z,5.40
2019-03-17T21:34:57.116Z,5.50
2019-03-17T21:37:26.316Z,5.50
2019-03-17T21:39:55.428Z,5.50
2019-03-17T21:42:27.893Z,5.50
2019-03-17T21:44:58.808Z,5.50
2019-03-17T21:47:30.419Z,5.50
2019-03-17T21:49:59.641Z,5.50
2019-03-17T21:52:28.769Z,5.40
2019-03-17T21:54:57.961Z,5.40
2019-03-17T21:57:27.102Z,5.30
2019-03-17T21:59:56.325Z,5.30
2019-03-17T22:02:25.427Z,5.20
2019-03-17T22:04:54.688Z,5.40
2019-03-17T22:07:23.830Z,5.50
2019-03-17T22:09:55.701Z,5.60
2019-03-17T22:12:25.781Z,5.70
2019-03-17T22:14:54.964Z,5.80
2019-03-17T22:17:24.547Z,5.70
2019-03-17T22:19:53.742Z,5.70
2019-03-17T22:22:22.925Z,5.60
2019-03-17T22:24:53.126Z,5.70
2019-03-17T22:27:22.273Z,5.60
2019-03-17T22:29:51.413Z,5.70
2019-03-17T22:32:20.969Z,5.70
2019-03-17T22:34:50.130Z,5.70
2019-03-17T22:37:19.239Z,5.70
2019-03-17T22:39:48.512Z,5.80
2019-03-17T22:42:17.782Z,5.80
2019-03-17T22:44:46.934Z,5.70
2019-03-17T22:47:16.123Z,5.70
2019-03-17T22:49:45.318Z,5.60
2019-03-17T22:52:14.522Z,5.70
2019-03-17T22:54:43.770Z,5.60
2019-03-17T22:57:12.969Z,5.60
2019-03-17T22:59:42.450Z,5.60
2019-03-17T23:02:11.534Z,5.60
2019-03-17T23:04:40.699Z,5.60
2019-03-17T23:07:12.353Z,5.50
2019-03-17T23:09:41.559Z,5.40
2019-03-17T23:12:10.734Z,5.40
2019-03-17T23:14:39.890Z,5.30
2019-03-17T23:17:09.090Z,5.30
2019-03-17T23:19:38.271Z,5.20
2019-03-17T23:22:07.441Z,5.20
2019-03-17T23:24:36.575Z,5.10
2019-03-17T23:27:06.555Z,5.10
2019-03-17T23:29:35.748Z,5.10
2019-03-17T23:32:05.377Z,5.00
2019-03-17T23:34:34.507Z,5.00
2019-03-17T23:37:03.677Z,5.10
2019-03-17T23:39:32.829Z,5.10
2019-03-17T23:42:01.965Z,5.20
2019-03-17T23:44:31.081Z,5.20
2019-03-17T23:47:00.382Z,5.20
2019-03-17T23:49:29.597Z,5.10
2019-03-17T23:51:58.781Z,5.10
2019-03-17T23:54:27.916Z,5.00
2019-03-17T23:56:57.076Z,5.00
2019-03-17T23:59:26.301Z,5.00
